Time;durP1;ratioP1;P1;durP2;ratioP2;P2;SDS_P1;SDS_P2;PMS_P1;PMS_P2;Temp;Humidity;BMP_temperature;BMP_pressure;BME280_temperature;BME280_humidity;BME280_pressure;Samples;Min_cycle;Max_cycle;Signal;HPM_P1;HPM_P2
2023/12/16 00:01:21;;;;;;;28.27;4.87;;;8.00;99.90;;;;;;5039006;28;20267;-85
2023/12/16 00:03:47;;;;;;;39.40;6.10;;;8.00;99.90;;;;;;5039102;28;20502;-85
2023/12/16 00:06:13;;;;;;;29.00;5.35;;;7.90;99.90;;;;;;5057029;28;20161;-85
2023/12/16 00:08:39;;;;;;;26.90;4.70;;;7.90;99.90;;;;;;5056669;28;20185;-85
2023/12/16 00:11:05;;;;;;;31.93;5.30;;;7.80;99.90;;;;;;5057129;28;20476;-85
2023/12/16 00:13:30;;;;;;;26.17;4.70;;;7.80;99.90;;;;;;5038489;28;20170;-85
2023/12/16 00:15:56;;;;;;;27.30;5.37;;;7.80;99.90;;;;;;5056785;28;20188;-85
2023/12/16 00:18:22;;;;;;;30.00;5.25;;;7.80;99.90;;;;;;5056695;28;20196;-85
2023/12/16 00:20:48;;;;;;;27.23;4.83;;;7.80;99.90;;;;;;5056880;28;20626;-85
2023/12/16 00:23:14;;;;;;;29.87;4.83;;;7.70;99.90;;;;;;5056367;28;20169;-85
2023/12/16 00:25:39;;;;;;;27.10;4.60;;;7.70;99.90;;;;;;5038682;28;20423;-85
2023/12/16 00:28:05;;;;;;;31.63;5.40;;;7.70;99.90;;;;;;5039021;28;20176;-85
2023/12/16 00:30:30;;;;;;;26.57;4.23;;;7.60;99.90;;;;;;5038230;28;20200;-85
2023/12/16 00:32:56;;;;;;;29.27;5.70;;;7.60;99.90;;;;;;5056603;28;20635;-84
2023/12/16 00:35:22;;;;;;;27.20;4.50;;;7.70;99.90;;;;;;5056348;28;20173;-84
2023/12/16 00:37:47;;;;;;;27.80;4.83;;;7.70;99.90;;;;;;5038255;28;20165;-85
2023/12/16 00:40:13;;;;;;;32.60;5.20;;;7.70;99.90;;;;;;5055991;28;20165;-85
2023/12/16 00:42:39;;;;;;;29.10;4.77;;;7.70;99.90;;;;;;5037614;28;20197;-85
2023/12/16 00:45:05;;;;;;;31.27;4.73;;;7.70;99.90;;;;;;5055504;28;20742;-85
2023/12/16 00:47:30;;;;;;;26.55;4.13;;;7.70;99.90;;;;;;5056438;28;20157;-85
2023/12/16 00:49:56;;;;;;;24.60;4.60;;;7.70;99.90;;;;;;5038539;28;20689;-85
2023/12/16 00:52:22;;;;;;;28.03;5.00;;;7.80;99.90;;;;;;5038213;28;20165;-85
2023/12/16 00:54:48;;;;;;;30.27;4.50;;;7.80;99.90;;;;;;5055582;28;20181;-85
2023/12/16 00:57:13;;;;;;;26.60;4.43;;;7.80;99.90;;;;;;5038131;28;20534;-85
2023/12/16 00:59:39;;;;;;;24.07;4.43;;;7.80;99.90;;;;;;5055878;28;20176;-85
2023/12/16 01:02:05;;;;;;;26.00;5.07;;;7.90;99.90;;;;;;5056171;28;20165;-85
2023/12/16 01:04:30;;;;;;;26.80;3.60;;;7.80;99.90;;;;;;5055999;28;20217;-85
2023/12/16 01:06:56;;;;;;;25.50;4.13;;;7.80;99.90;;;;;;5055969;28;20598;-85
2023/12/16 01:09:24;;;;;;;29.47;5.50;;;7.90;99.90;;;;;;5055575;28;20528;-85
2023/12/16 01:11:50;;;;;;;29.13;3.72;;;7.80;99.90;;;;;;5037647;28;20587;-85
2023/12/16 01:14:16;;;;;;;29.13;5.43;;;7.80;99.90;;;;;;5037959;28;20192;-85
2023/12/16 01:16:41;;;;;;;24.30;3.57;;;7.80;99.90;;;;;;5037588;28;20912;-85
2023/12/16 01:19:07;;;;;;;37.30;5.43;;;7.80;99.90;;;;;;5055162;28;20255;-85
2023/12/16 01:21:43;;;;;;;25.20;4.33;;;7.80;99.90;;;;;;5055821;28;20196;-84
2023/12/16 01:24:09;;;;;;;29.08;4.50;;;7.90;99.90;;;;;;5055295;28;20199;-85
2023/12/16 01:26:34;;;;;;;25.13;4.40;;;7.80;99.90;;;;;;5055609;28;20654;-85
2023/12/16 01:29:00;;;;;;;28.00;4.63;;;7.80;99.90;;;;;;5055312;28;20204;-84
2023/12/16 01:31:26;;;;;;;23.93;4.60;;;7.80;99.90;;;;;;5037301;28;20175;-85
2023/12/16 01:33:51;;;;;;;26.67;4.37;;;7.80;99.90;;;;;;5055862;28;20432;-85
2023/12/16 01:36:19;;;;;;;23.83;3.50;;;7.80;99.90;;;;;;5055458;28;20188;-84
2023/12/16 01:38:45;;;;;;;29.73;5.38;;;7.80;99.90;;;;;;5055071;28;20676;-85
2023/12/16 01:41:10;;;;;;;27.60;4.50;;;7.80;99.90;;;;;;5055653;28;20166;-85
2023/12/16 01:43:36;;;;;;;25.30;4.80;;;7.90;99.90;;;;;;5037129;28;20203;-85
2023/12/16 01:46:04;;;;;;;35.57;5.23;;;7.80;99.90;;;;;;5037364;28;20542;-84
2023/12/16 01:48:31;;;;;;;32.55;4.32;;;7.80;99.90;;;;;;5037170;28;20172;-85
2023/12/16 01:50:57;;;;;;;25.38;4.32;;;7.80;99.90;;;;;;5055106;28;20161;-84
2023/12/16 01:53:24;;;;;;;23.98;4.80;;;7.90;99.90;;;;;;5055163;28;20174;-85
2023/12/16 01:55:50;;;;;;;27.10;4.45;;;7.90;99.90;;;;;;5057570;28;20236;-85
2023/12/16 01:58:16;;;;;;;28.85;5.07;;;7.80;99.90;;;;;;5058849;28;20161;-85
2023/12/16 02:00:42;;;;;;;24.67;3.90;;;7.90;99.90;;;;;;5059168;28;20173;-85
2023/12/16 02:03:08;;;;;;;26.55;4.45;;;7.80;99.90;;;;;;5041335;28;20411;-85
2023/12/16 02:05:33;;;;;;;23.83;3.50;;;7.80;99.90;;;;;;5058671;28;20196;-85
2023/12/16 02:07:59;;;;;;;26.83;4.07;;;7.80;99.90;;;;;;5041400;28;20173;-85
2023/12/16 02:10:25;;;;;;;29.90;4.53;;;7.80;99.90;;;;;;5058945;28;20661;-85
2023/12/16 02:12:51;;;;;;;35.97;4.97;;;7.80;99.90;;;;;;5058941;28;20169;-85
2023/12/16 02:15:16;;;;;;;27.17;4.83;;;7.90;99.90;;;;;;5058949;28;20419;-84
2023/12/16 02:17:42;;;;;;;29.43;5.37;;;7.90;99.90;;;;;;5058982;28;20189;-84
2023/12/16 02:20:08;;;;;;;33.90;4.60;;;7.90;99.90;;;;;;5058258;28;20169;-85
2023/12/16 02:22:34;;;;;;;26.63;4.03;;;7.90;99.90;;;;;;5040706;28;20534;-85
2023/12/16 02:25:00;;;;;;;31.47;5.33;;;7.90;99.90;;;;;;5058822;28;20192;-85
2023/12/16 02:27:26;;;;;;;30.20;4.85;;;7.80;99.90;;;;;;5040879;28;20169;-85
2023/12/16 02:29:52;;;;;;;26.27;4.17;;;7.80;99.90;;;;;;5058682;28;20682;-85
2023/12/16 02:32:17;;;;;;;25.27;4.13;;;7.80;99.90;;;;;;5058951;28;20637;-85
2023/12/16 02:34:43;;;;;;;24.00;4.30;;;7.80;99.90;;;;;;5058802;28;20217;-85
2023/12/16 02:37:12;;;;;;;27.47;4.00;;;7.80;99.90;;;;;;5058602;28;20244;-85
2023/12/16 02:39:38;;;;;;;28.73;4.47;;;7.80;99.90;;;;;;5122458;22;20156;-85
2023/12/16 02:42:04;;;;;;;23.77;4.00;;;7.70;99.90;;;;;;5041225;28;20503;-85
2023/12/16 02:44:30;;;;;;;30.50;4.07;;;7.80;99.90;;;;;;5058335;28;20630;-85
2023/12/16 02:46:55;;;;;;;28.83;4.00;;;7.80;99.90;;;;;;5058866;28;20465;-85
2023/12/16 02:49:21;;;;;;;27.50;4.57;;;7.80;99.90;;;;;;5058543;28;20201;-85
2023/12/16 02:51:47;;;;;;;23.33;4.00;;;7.70;99.90;;;;;;5041745;28;20165;-85
2023/12/16 02:54:12;;;;;;;25.03;3.90;;;7.70;99.90;;;;;;5041250;28;20181;-85
2023/12/16 02:56:38;;;;;;;28.00;4.80;;;7.70;99.90;;;;;;5058403;28;20242;-85
2023/12/16 02:59:04;;;;;;;22.80;3.70;;;7.60;99.90;;;;;;5058208;28;20166;-84
2023/12/16 03:01:29;;;;;;;28.13;5.13;;;7.60;99.90;;;;;;5058009;28;20161;-84
2023/12/16 03:03:55;;;;;;;25.77;4.63;;;7.60;99.90;;;;;;5057613;28;20423;-85
2023/12/16 03:06:21;;;;;;;27.17;5.10;;;7.70;99.90;;;;;;5039425;28;20648;-84
2023/12/16 03:08:46;;;;;;;24.70;4.53;;;7.60;99.90;;;;;;5039950;28;20673;-85
2023/12/16 03:11:13;;;;;;;24.53;4.20;;;7.70;99.90;;;;;;5057654;28;20157;-84
2023/12/16 03:13:38;;;;;;;24.40;4.35;;;7.70;99.90;;;;;;5057615;28;20164;-85
2023/12/16 03:16:04;;;;;;;25.07;4.47;;;7.80;99.90;;;;;;5039673;28;20538;-85
2023/12/16 03:18:30;;;;;;;25.23;4.05;;;7.80;99.90;;;;;;5058188;28;20168;-85
2023/12/16 03:20:56;;;;;;;31.33;3.80;;;7.70;99.90;;;;;;5057621;28;20643;-85
2023/12/16 03:23:21;;;;;;;24.90;4.83;;;7.70;99.90;;;;;;5057850;28;20642;-84
2023/12/16 03:25:47;;;;;;;23.50;4.30;;;7.70;99.90;;;;;;5058020;28;20185;-85
2023/12/16 03:28:13;;;;;;;21.10;3.70;;;7.70;99.90;;;;;;5058753;28;20236;-85
2023/12/16 03:30:40;;;;;;;27.47;4.70;;;7.70;99.90;;;;;;5057538;28;20188;-85
2023/12/16 03:33:08;;;;;;;21.00;3.30;;;7.60;99.90;;;;;;5056783;28;20219;-85
2023/12/16 03:35:34;;;;;;;33.72;5.47;;;7.60;99.90;;;;;;5039076;28;20185;-85
2023/12/16 03:38:02;;;;;;;25.23;4.30;;;7.60;99.90;;;;;;5040914;28;20180;-85
2023/12/16 03:40:29;;;;;;;26.67;4.97;;;7.60;99.90;;;;;;5057209;28;20218;-85
2023/12/16 03:42:55;;;;;;;27.15;4.38;;;7.70;99.90;;;;;;5057199;28;20248;-85
2023/12/16 03:45:21;;;;;;;26.38;4.30;;;7.70;99.90;;;;;;5039467;28;20287;-84
2023/12/16 03:47:47;;;;;;;32.90;3.73;;;7.70;99.90;;;;;;5057683;28;20611;-85
2023/12/16 03:50:12;;;;;;;33.60;6.30;;;7.60;99.90;;;;;;5056830;28;20216;-84
2023/12/16 03:52:38;;;;;;;22.40;3.80;;;7.60;99.90;;;;;;5057332;28;20695;-85
2023/12/16 03:55:04;;;;;;;28.37;3.73;;;7.60;99.90;;;;;;5057014;28;20731;-85
2023/12/16 03:57:32;;;;;;;26.90;3.88;;;7.60;99.90;;;;;;5056992;28;20165;-84
2023/12/16 03:59:58;;;;;;;23.08;3.67;;;7.60;99.90;;;;;;5039229;28;20177;-85
2023/12/16 04:02:24;;;;;;;24.70;4.70;;;7.60;99.90;;;;;;5057110;28;20622;-85
2023/12/16 04:04:49;;;;;;;25.37;3.63;;;7.60;99.90;;;;;;5057035;28;20200;-84
2023/12/16 04:07:15;;;;;;;28.93;3.90;;;7.60;99.90;;;;;;5056804;28;20157;-85
2023/12/16 04:09:41;;;;;;;24.70;3.77;;;7.60;99.90;;;;;;5038453;28;20270;-84
2023/12/16 04:12:07;;;;;;;27.10;3.70;;;7.60;99.90;;;;;;5056120;28;20192;-85
2023/12/16 04:14:47;;;;;;;27.48;3.35;;;7.60;99.90;;;;;;5038200;28;20186;-84
2023/12/16 04:17:13;;;;;;;22.15;3.17;;;7.60;99.90;;;;;;5056600;28;20232;-84
2023/12/16 04:19:48;;;;;;;24.37;3.33;;;7.60;99.90;;;;;;5055858;28;20685;-85
2023/12/16 04:22:13;;;;;;;26.48;3.42;;;7.60;99.90;;;;;;5056965;28;20382;-85
2023/12/16 04:24:39;;;;;;;26.50;3.70;;;7.60;99.90;;;;;;5056074;28;20185;-85
2023/12/16 04:27:05;;;;;;;26.03;3.70;;;7.60;99.90;;;;;;5056786;28;20170;-85
2023/12/16 04:29:30;;;;;;;22.70;3.97;;;7.60;99.90;;;;;;5056402;28;20200;-84
2023/12/16 04:31:56;;;;;;;23.97;3.50;;;7.60;99.90;;;;;;5056395;28;20158;-85
2023/12/16 04:34:21;;;;;;;24.97;3.40;;;7.60;99.90;;;;;;5056012;28;20248;-85
2023/12/16 04:36:47;;;;;;;24.67;3.63;;;7.70;99.90;;;;;;5055961;28;20161;-84
2023/12/16 04:39:13;;;;;;;23.05;2.90;;;7.60;99.90;;;;;;5056210;28;20248;-85
2023/12/16 04:41:39;;;;;;;22.70;3.30;;;7.70;99.90;;;;;;5055880;28;20208;-84
2023/12/16 04:44:05;;;;;;;21.80;2.73;;;7.70;99.90;;;;;;5037848;28;20193;-85
2023/12/16 04:46:31;;;;;;;24.73;3.63;;;7.70;99.90;;;;;;5055996;28;20169;-84
2023/12/16 04:48:56;;;;;;;23.30;3.30;;;7.60;99.90;;;;;;5055977;28;20272;-84
2023/12/16 04:51:22;;;;;;;24.93;3.27;;;7.70;99.90;;;;;;5037753;28;20165;-84
2023/12/16 04:53:48;;;;;;;25.47;4.00;;;7.60;99.90;;;;;;5055599;28;20400;-84
2023/12/16 04:56:14;;;;;;;26.33;3.50;;;7.60;99.90;;;;;;5055580;28;20157;-84
2023/12/16 04:58:39;;;;;;;25.00;3.77;;;7.60;99.90;;;;;;5038186;28;20169;-85
2023/12/16 05:01:05;;;;;;;24.97;3.23;;;7.60;99.90;;;;;;5055726;28;20161;-85
2023/12/16 05:03:32;;;;;;;26.53;4.20;;;7.60;99.90;;;;;;5055970;28;20588;-85
2023/12/16 05:05:58;;;;;;;27.25;3.45;;;7.50;99.90;;;;;;5055584;28;20191;-84
2023/12/16 05:08:23;;;;;;;28.87;4.37;;;7.50;99.90;;;;;;5055727;28;20161;-85
2023/12/16 05:10:51;;;;;;;22.30;3.03;;;7.50;99.90;;;;;;5055512;28;20196;-84
2023/12/16 05:13:17;;;;;;;24.90;3.90;;;7.50;99.90;;;;;;5055596;28;20479;-84
2023/12/16 05:15:43;;;;;;;33.43;6.50;;;7.50;99.90;;;;;;5037532;28;20280;-85
2023/12/16 05:18:09;;;;;;;25.00;3.07;;;7.50;99.90;;;;;;5055563;28;20227;-84
2023/12/16 05:20:35;;;;;;;23.67;2.90;;;7.50;99.90;;;;;;5036922;28;20166;-85
2023/12/16 05:23:02;;;;;;;25.02;3.50;;;7.50;99.90;;;;;;5055360;28;20173;-85
2023/12/16 05:25:28;;;;;;;25.83;3.45;;;7.50;99.90;;;;;;5037424;28;20693;-84
2023/12/16 05:27:54;;;;;;;22.00;2.60;;;7.50;99.90;;;;;;5055412;28;20165;-84
2023/12/16 05:30:20;;;;;;;24.80;2.75;;;7.50;99.90;;;;;;5056688;28;20203;-85
2023/12/16 05:32:46;;;;;;;23.73;2.90;;;7.50;99.90;;;;;;5059747;28;20165;-85
2023/12/16 05:35:11;;;;;;;27.23;2.90;;;7.50;99.90;;;;;;5059621;28;20570;-84
2023/12/16 05:37:40;;;;;;;21.63;2.97;;;7.50;99.90;;;;;;5059394;28;20534;-84
2023/12/16 05:40:06;;;;;;;26.08;4.07;;;7.50;99.90;;;;;;5059487;28;20268;-84
2023/12/16 05:42:32;;;;;;;24.55;3.53;;;7.50;99.90;;;;;;5041579;28;20173;-85
2023/12/16 05:44:58;;;;;;;25.53;3.20;;;7.50;99.90;;;;;;5058944;28;20199;-84
2023/12/16 05:47:23;;;;;;;23.60;2.80;;;7.50;99.90;;;;;;5059068;28;20169;-84
2023/12/16 05:49:50;;;;;;;26.73;3.73;;;7.50;99.90;;;;;;5041654;28;20197;-84
2023/12/16 05:52:16;;;;;;;24.00;3.00;;;7.50;99.90;;;;;;5059342;28;20163;-84
2023/12/16 05:54:41;;;;;;;25.57;3.47;;;7.50;99.90;;;;;;5041091;28;20627;-84
2023/12/16 05:57:07;;;;;;;26.30;3.40;;;7.50;99.90;;;;;;5059447;28;20161;-85
2023/12/16 05:59:34;;;;;;;27.23;3.67;;;7.50;99.90;;;;;;5059073;28;20216;-84
2023/12/16 06:02:02;;;;;;;27.30;3.50;;;7.50;99.90;;;;;;5058852;28;20173;-85
2023/12/16 06:04:29;;;;;;;25.75;3.67;;;7.50;99.90;;;;;;5059338;28;20185;-84
2023/12/16 06:06:57;;;;;;;26.52;4.75;;;7.50;99.90;;;;;;5058652;28;20276;-85
2023/12/16 06:09:23;;;;;;;24.08;2.97;;;7.50;99.90;;;;;;5059482;28;20531;-85
2023/12/16 06:11:49;;;;;;;25.90;3.20;;;7.50;99.90;;;;;;5059028;28;20194;-85
2023/12/16 06:14:15;;;;;;;24.23;3.75;;;7.50;99.90;;;;;;5058616;28;20180;-85
2023/12/16 06:16:40;;;;;;;31.10;3.63;;;7.50;99.90;;;;;;5059042;28;20570;-85
2023/12/16 06:19:06;;;;;;;22.20;2.53;;;7.50;99.90;;;;;;5059181;28;20196;-84
2023/12/16 06:21:32;;;;;;;22.67;3.00;;;7.60;99.90;;;;;;5041194;28;20172;-85
2023/12/16 06:23:58;;;;;;;23.20;2.83;;;7.50;99.90;;;;;;5058995;28;20554;-84
2023/12/16 06:26:24;;;;;;;26.40;3.10;;;7.50;99.90;;;;;;5058476;28;20169;-85
2023/12/16 06:28:50;;;;;;;25.73;4.20;;;7.60;99.90;;;;;;5058838;28;20215;-84
2023/12/16 06:31:19;;;;;;;24.77;3.57;;;7.50;99.90;;;;;;5040723;28;20169;-84
2023/12/16 06:33:45;;;;;;;25.38;3.88;;;7.50;99.90;;;;;;5058144;28;20199;-84
2023/12/16 06:36:11;;;;;;;27.25;4.30;;;7.50;99.90;;;;;;5058529;28;20176;-84
2023/12/16 06:38:37;;;;;;;28.80;4.23;;;7.60;99.90;;;;;;5058278;28;20165;-84
2023/12/16 06:41:05;;;;;;;33.33;5.18;;;7.60;99.90;;;;;;5058150;28;20173;-85
2023/12/16 06:43:31;;;;;;;28.55;4.60;;;7.50;99.90;;;;;;5059127;28;20169;-84
2023/12/16 06:45:59;;;;;;;30.55;5.70;;;7.60;99.90;;;;;;5059466;28;20189;-84
2023/12/16 06:48:25;;;;;;;29.52;5.20;;;7.60;99.90;;;;;;5040839;28;20545;-84
2023/12/16 06:50:51;;;;;;;30.47;6.50;;;7.60;99.90;;;;;;5058215;28;20199;-84
2023/12/16 06:53:19;;;;;;;29.00;4.87;;;7.60;99.90;;;;;;5040163;28;20165;-85
2023/12/16 06:55:45;;;;;;;33.28;5.18;;;7.60;99.90;;;;;;5058202;28;20291;-84
2023/12/16 06:58:13;;;;;;;28.20;5.47;;;7.60;99.90;;;;;;5058133;28;20169;-84
2023/12/16 07:00:40;;;;;;;26.30;4.35;;;7.60;99.90;;;;;;5057507;28;20169;-84
2023/12/16 07:03:05;;;;;;;36.58;5.28;;;7.60;99.90;;;;;;5057909;28;20169;-84
2023/12/16 07:05:34;;;;;;;28.70;6.10;;;7.60;99.90;;;;;;5057683;28;20185;-84
2023/12/16 07:07:59;;;;;;;31.15;5.15;;;7.60;99.90;;;;;;5039589;28;20180;-84
2023/12/16 07:10:28;;;;;;;30.37;5.77;;;7.60;99.90;;;;;;5040426;28;20546;-84
2023/12/16 07:12:54;;;;;;;31.67;4.28;;;7.60;99.90;;;;;;5057610;28;20406;-84
2023/12/16 07:15:20;;;;;;;28.03;4.20;;;7.60;99.90;;;;;;5057649;28;20662;-83
2023/12/16 07:17:46;;;;;;;24.17;3.58;;;7.70;99.90;;;;;;5057211;28;20181;-84
2023/12/16 07:20:12;;;;;;;24.43;3.57;;;7.70;99.90;;;;;;5056406;28;20181;-84
2023/12/16 07:22:38;;;;;;;22.88;3.33;;;7.70;99.90;;;;;;5057243;28;20403;-84
2023/12/16 07:25:04;;;;;;;23.30;3.10;;;7.70;99.90;;;;;;5058547;28;20185;-84
2023/12/16 07:27:30;;;;;;;25.05;2.78;;;7.70;99.90;;;;;;5039240;28;20411;-84
2023/12/16 07:29:56;;;;;;;28.73;3.00;;;7.70;99.90;;;;;;5057721;28;20181;-84
2023/12/16 07:32:23;;;;;;;24.40;2.70;;;7.80;99.90;;;;;;5039130;28;20643;-84
2023/12/16 07:34:51;;;;;;;29.77;3.30;;;7.80;99.90;;;;;;5039343;28;20215;-84
2023/12/16 07:37:18;;;;;;;27.00;2.88;;;7.80;99.90;;;;;;5057600;28;20644;-84
2023/12/16 07:39:44;;;;;;;20.50;2.53;;;7.80;99.90;;;;;;5056654;28;20181;-84
2023/12/16 07:42:11;;;;;;;24.30;3.23;;;7.80;99.90;;;;;;5056650;28;20156;-83
2023/12/16 07:44:37;;;;;;;23.88;2.72;;;7.80;99.90;;;;;;5038709;28;20189;-84
2023/12/16 07:47:02;;;;;;;24.70;3.33;;;7.80;99.90;;;;;;5056439;28;20165;-84
2023/12/16 07:49:28;;;;;;;24.83;2.70;;;7.80;99.90;;;;;;5057076;28;20460;-84
2023/12/16 07:51:55;;;;;;;21.90;3.17;;;7.80;99.90;;;;;;5057190;28;20495;-84
2023/12/16 07:54:24;;;;;;;21.50;2.80;;;7.80;99.90;;;;;;5056613;28;20188;-84
2023/12/16 07:56:53;;;;;;;24.60;3.70;;;7.80;99.90;;;;;;5057082;28;20161;-84
2023/12/16 07:59:18;;;;;;;24.95;2.97;;;7.80;99.90;;;;;;5057431;28;20686;-84
2023/12/16 08:01:52;;;;;;;25.37;3.80;;;7.80;99.90;;;;;;5056576;28;20176;-84
2023/12/16 08:04:18;;;;;;;27.30;4.05;;;7.80;99.90;;;;;;5057184;28;20186;-84
2023/12/16 08:06:44;;;;;;;29.27;3.30;;;7.80;99.90;;;;;;5056951;28;20662;-84
2023/12/16 08:09:10;;;;;;;23.30;2.90;;;7.70;99.90;;;;;;5056220;28;20189;-84
2023/12/16 08:11:35;;;;;;;22.10;3.13;;;7.70;99.90;;;;;;5038639;28;20169;-84
2023/12/16 08:14:02;;;;;;;23.80;2.63;;;7.70;99.90;;;;;;5037933;28;20685;-84
2023/12/16 08:16:28;;;;;;;31.23;3.58;;;7.70;99.90;;;;;;5056636;28;20638;-84
2023/12/16 08:18:53;;;;;;;25.70;2.90;;;7.70;99.90;;;;;;5056424;28;20180;-84
2023/12/16 08:21:20;;;;;;;26.23;3.50;;;7.60;99.90;;;;;;5056154;28;20169;-84
2023/12/16 08:23:46;;;;;;;29.70;4.38;;;7.60;99.90;;;;;;5055307;28;20195;-84
2023/12/16 08:26:12;;;;;;;30.90;3.67;;;7.50;99.90;;;;;;5056087;28;20169;-84
2023/12/16 08:28:40;;;;;;;28.30;3.60;;;7.50;99.90;;;;;;5037911;28;20498;-84
2023/12/16 08:31:06;;;;;;;26.80;4.65;;;7.60;99.90;;;;;;5056249;28;20416;-83
2023/12/16 08:33:32;;;;;;;26.88;4.55;;;7.50;99.90;;;;;;5056914;28;20173;-84
2023/12/16 08:35:58;;;;;;;25.80;4.03;;;7.50;99.90;;;;;;5038675;28;20188;-83
2023/12/16 08:38:23;;;;;;;28.07;3.67;;;7.60;99.90;;;;;;5054662;28;20189;-83
2023/12/16 08:40:53;;;;;;;28.43;4.07;;;7.50;99.90;;;;;;5055911;28;20543;-84
2023/12/16 08:43:18;;;;;;;24.83;3.20;;;7.50;99.90;;;;;;5060921;28;20188;-84
2023/12/16 08:45:44;;;;;;;33.37;3.93;;;7.50;99.90;;;;;;5062131;28;20197;-84
2023/12/16 08:48:13;;;;;;;30.50;3.93;;;7.50;99.90;;;;;;5062873;28;20529;-84
2023/12/16 08:50:39;;;;;;;31.58;3.75;;;7.50;99.90;;;;;;5043820;28;20203;-84
2023/12/16 08:53:09;;;;;;;28.93;3.80;;;7.50;99.90;;;;;;5129627;23;20639;-84
2023/12/16 08:55:34;;;;;;;26.08;3.97;;;7.50;99.90;;;;;;5121568;22;20868;-84
2023/12/16 08:58:00;;;;;;;29.20;3.80;;;7.50;99.90;;;;;;5057191;28;20165;-84
2023/12/16 09:00:26;;;;;;;25.80;4.00;;;7.60;99.90;;;;;;5056797;28;20165;-84
2023/12/16 09:02:51;;;;;;;27.30;3.77;;;7.60;99.90;;;;;;5057455;28;20161;-84
2023/12/16 09:05:19;;;;;;;27.47;3.90;;;7.60;99.90;;;;;;5056263;28;20181;-84
2023/12/16 09:07:45;;;;;;;30.50;3.83;;;7.60;99.90;;;;;;5057235;28;20161;-84
2023/12/16 09:10:11;;;;;;;32.17;4.30;;;7.70;99.90;;;;;;5038931;28;20546;-84
2023/12/16 09:12:38;;;;;;;27.05;3.78;;;7.60;99.90;;;;;;5057009;28;20161;-84
2023/12/16 09:15:04;;;;;;;25.80;3.97;;;7.70;99.90;;;;;;5056768;28;20177;-84
2023/12/16 09:17:30;;;;;;;26.30;4.20;;;7.70;99.90;;;;;;5039100;28;20538;-84
2023/12/16 09:19:55;;;;;;;30.23;4.57;;;7.80;99.90;;;;;;5057357;28;20161;-84
2023/12/16 09:22:21;;;;;;;25.83;3.23;;;7.80;99.90;;;;;;5056909;28;20165;-84
2023/12/16 09:24:47;;;;;;;23.13;3.10;;;7.80;99.90;;;;;;5056317;28;20689;-84
2023/12/16 09:27:13;;;;;;;29.83;3.47;;;7.90;99.90;;;;;;5056585;28;20247;-84
2023/12/16 09:29:39;;;;;;;24.27;3.00;;;8.00;99.90;;;;;;5057347;28;20672;-84
2023/12/16 09:32:06;;;;;;;32.97;3.25;;;8.00;99.90;;;;;;5056773;28;20165;-84
2023/12/16 09:34:31;;;;;;;26.42;3.28;;;8.10;99.90;;;;;;5038931;28;20628;-84
2023/12/16 09:36:57;;;;;;;26.20;2.97;;;8.10;99.90;;;;;;5038623;28;20196;-84
2023/12/16 09:39:23;;;;;;;27.27;3.63;;;8.20;99.90;;;;;;5054623;28;20172;-84
2023/12/16 09:41:51;;;;;;;24.88;3.13;;;8.30;99.90;;;;;;5054629;28;20252;-84
2023/12/16 09:44:19;;;;;;;22.08;2.35;;;8.40;99.90;;;;;;5055883;28;20209;-84
2023/12/16 09:46:45;;;;;;;23.70;2.55;;;8.50;99.90;;;;;;5056872;28;20179;-84
2023/12/16 09:49:13;;;;;;;26.80;2.37;;;8.60;99.90;;;;;;5038036;28;20256;-84
2023/12/16 09:51:42;;;;;;;22.02;3.08;;;8.70;99.90;;;;;;5056256;28;20157;-84
2023/12/16 09:54:08;;;;;;;29.92;3.88;;;8.70;99.90;;;;;;5055956;28;20193;-84
2023/12/16 09:56:34;;;;;;;24.83;2.37;;;8.70;99.90;;;;;;5056394;28;20161;-84
2023/12/16 09:59:02;;;;;;;24.35;2.45;;;8.80;99.90;;;;;;5056722;28;20403;-84
2023/12/16 10:01:28;;;;;;;23.00;2.40;;;8.80;99.90;;;;;;5056374;28;20256;-84
2023/12/16 10:03:54;;;;;;;24.87;3.23;;;8.80;99.90;;;;;;5055877;28;20258;-84
2023/12/16 10:06:20;;;;;;;29.15;3.38;;;8.90;99.90;;;;;;5038009;28;20166;-84
2023/12/16 10:08:47;;;;;;;20.80;2.60;;;8.80;99.90;;;;;;5056043;28;20169;-83
2023/12/16 10:11:13;;;;;;;22.15;2.80;;;8.80;99.90;;;;;;5038180;28;20211;-84
2023/12/16 10:14:00;;;;;;;23.13;3.20;;;8.90;99.90;;;;;;5038281;28;20169;-84
2023/12/16 10:16:25;;;;;;;25.35;2.92;;;8.90;99.90;;;;;;5057375;28;20549;-84
2023/12/16 10:18:55;;;;;;;25.10;3.40;;;9.00;99.90;;;;;;5059589;28;20168;-84
2023/12/16 10:21:31;;;;;;;25.55;2.35;;;9.00;99.90;;;;;;5060034;28;20167;-84
2023/12/16 10:24:01;;;;;;;25.13;2.90;;;9.00;99.90;;;;;;5042235;28;20556;-84
2023/12/16 10:26:34;;;;;;;25.50;3.85;;;9.10;99.90;;;;;;5041508;28;20263;-84
2023/12/16 10:29:04;;;;;;;25.95;2.95;;;9.10;99.90;;;;;;5041393;28;20200;-84
2023/12/16 10:31:29;;;;;;;25.80;3.30;;;9.00;99.90;;;;;;5059686;28;20178;-84
2023/12/16 10:33:55;;;;;;;22.30;2.33;;;9.00;99.90;;;;;;5059735;28;20165;-84
2023/12/16 10:36:21;;;;;;;27.53;2.80;;;9.10;99.90;;;;;;5059410;28;20162;-84
2023/12/16 10:38:47;;;;;;;23.93;2.57;;;9.10;99.90;;;;;;5059595;28;20165;-84
2023/12/16 10:41:15;;;;;;;24.30;2.90;;;9.20;99.90;;;;;;5059709;28;20166;-84
2023/12/16 10:43:41;;;;;;;23.48;2.78;;;9.20;99.90;;;;;;5059102;28;20157;-84
2023/12/16 10:46:07;;;;;;;27.30;3.67;;;9.30;99.90;;;;;;5058882;28;20172;-84
2023/12/16 10:48:34;;;;;;;23.80;2.73;;;9.50;99.90;;;;;;5059194;28;20162;-84
2023/12/16 10:51:04;;;;;;;26.00;3.13;;;9.50;98.10;;;;;;5058867;28;20204;-84
2023/12/16 10:53:35;;;;;;;23.60;2.75;;;9.60;99.90;;;;;;5058818;28;20200;-84
2023/12/16 10:56:07;;;;;;;25.25;2.70;;;9.80;99.90;;;;;;5040811;28;20189;-84
2023/12/16 10:58:37;;;;;;;29.88;3.30;;;10.00;99.80;;;;;;5040622;28;20252;-84
2023/12/16 11:01:14;;;;;;;27.30;2.90;;;10.10;98.60;;;;;;5058727;28;20211;-84
2023/12/16 11:03:49;;;;;;;24.83;3.28;;;10.30;95.90;;;;;;5058751;28;20146;-84
2023/12/16 11:06:22;;;;;;;30.10;2.88;;;10.40;94.70;;;;;;5058544;28;20149;-84
2023/12/16 11:08:49;;;;;;;22.90;2.35;;;10.50;93.90;;;;;;5058294;28;20615;-84
2023/12/16 11:11:18;;;;;;;21.55;2.13;;;10.50;91.70;;;;;;5059050;28;20179;-84
2023/12/16 11:13:45;;;;;;;23.98;2.55;;;10.70;90.60;;;;;;5040650;28;20252;-84
2023/12/16 11:16:17;;;;;;;23.45;2.83;;;10.90;89.10;;;;;;5040874;28;20196;-84
2023/12/16 11:18:48;;;;;;;22.35;2.90;;;10.80;76.80;;;;;;5059175;28;20168;-84
2023/12/16 11:21:17;;;;;;;20.55;2.25;;;10.90;88.70;;;;;;5058463;28;20199;-84
2023/12/16 11:23:48;;;;;;;33.70;2.92;;;11.00;77.70;;;;;;5040067;28;20172;-83
2023/12/16 11:26:16;;;;;;;24.13;2.15;;;11.20;71.10;;;;;;5058031;28;20573;-84
2023/12/16 11:28:41;;;;;;;28.63;2.58;;;11.10;64.80;;;;;;5039852;28;20160;-84
2023/12/16 11:31:08;;;;;;;22.80;2.30;;;11.20;78.70;;;;;;5040696;28;20696;-84
2023/12/16 11:33:44;;;;;;;25.63;2.75;;;11.10;76.00;;;;;;5040256;28;20165;-84
2023/12/16 11:36:10;;;;;;;22.52;3.10;;;11.00;78.50;;;;;;5058267;28;20228;-84
2023/12/16 11:38:43;;;;;;;27.00;3.30;;;11.00;86.10;;;;;;5058188;28;20168;-84
2023/12/16 11:41:35;;;;;;;23.98;2.45;;;11.00;91.40;;;;;;5058200;28;20630;-84
2023/12/16 11:44:00;;;;;;;23.80;2.65;;;11.00;90.30;;;;;;5058012;28;20197;-84
2023/12/16 11:46:33;;;;;;;22.97;2.47;;;11.10;83.80;;;;;;5058129;28;20575;-84
2023/12/16 11:49:04;;;;;;;19.75;2.33;;;11.20;85.80;;;;;;5057855;28;20165;-84
2023/12/16 11:51:31;;;;;;;22.27;2.25;;;11.30;65.00;;;;;;5058063;28;20150;-84
2023/12/16 11:53:59;;;;;;;25.13;2.40;;;11.30;74.00;;;;;;5057036;28;20208;-84
2023/12/16 11:56:26;;;;;;;32.88;2.75;;;11.30;85.30;;;;;;5057930;28;20161;-84
2023/12/16 11:58:57;;;;;;;23.45;2.75;;;11.30;73.40;;;;;;5057040;28;20574;-83
2023/12/16 12:01:26;;;;;;;26.45;2.97;;;11.30;76.10;;;;;;5038790;28;20252;-84
2023/12/16 12:03:55;;;;;;;29.52;2.63;;;11.20;88.00;;;;;;5056784;28;20180;-84
2023/12/16 12:06:22;;;;;;;25.90;3.53;;;11.20;90.50;;;;;;5039516;28;20162;-84
2023/12/16 12:08:48;;;;;;;25.60;3.17;;;11.20;86.70;;;;;;5056800;28;20181;-84
2023/12/16 12:11:16;;;;;;;26.13;2.83;;;11.30;87.80;;;;;;5057004;28;20157;-84
2023/12/16 12:13:43;;;;;;;24.23;2.63;;;11.20;88.80;;;;;;5056892;28;20157;-84
2023/12/16 12:16:12;;;;;;;21.75;2.00;;;11.20;91.60;;;;;;5039289;28;20173;-84
2023/12/16 12:18:38;;;;;;;23.70;2.10;;;11.20;92.00;;;;;;5057019;28;20181;-84
2023/12/16 12:21:04;;;;;;;21.80;2.13;;;11.10;94.80;;;;;;5038776;28;20176;-84
2023/12/16 12:23:30;;;;;;;28.60;3.13;;;11.10;93.00;;;;;;5057338;28;20169;-84
2023/12/16 12:25:56;;;;;;;25.77;2.23;;;11.10;93.20;;;;;;5039613;28;20256;-84
2023/12/16 12:28:22;;;;;;;26.37;2.67;;;11.00;94.60;;;;;;5057156;28;20169;-84
2023/12/16 12:30:48;;;;;;;25.85;2.38;;;11.10;94.60;;;;;;5038661;28;20975;-84
2023/12/16 12:33:14;;;;;;;27.45;2.67;;;11.10;93.80;;;;;;5056432;28;20162;-83
2023/12/16 12:35:39;;;;;;;32.97;2.77;;;11.10;94.80;;;;;;5038826;28;20189;-84
2023/12/16 12:38:05;;;;;;;28.07;2.67;;;11.10;94.40;;;;;;5056698;28;20420;-84
2023/12/16 12:40:31;;;;;;;27.20;3.00;;;11.10;94.60;;;;;;5038057;28;20435;-84
2023/12/16 12:42:58;;;;;;;28.10;2.40;;;11.10;96.10;;;;;;5056986;28;20426;-84